createdAt,value
2022-08-26T00:00:27.220Z,100.00
2022-08-26T00:01:30.069Z,100.00
2022-08-26T00:02:32.395Z,100.00
2022-08-26T00:03:36.457Z,100.00
2022-08-26T00:04:38.734Z,100.00
2022-08-26T00:05:42.194Z,100.00
2022-08-26T00:06:46.376Z,100.00
2022-08-26T00:07:49.617Z,100.00
2022-08-26T00:08:54.264Z,100.00
2022-08-26T00:09:56.478Z,100.00
2022-08-26T00:10:59.924Z,100.00
2022-08-26T00:12:02.449Z,100.00
2022-08-26T00:13:06.399Z,100.00
2022-08-26T00:14:08.738Z,100.00
2022-08-26T00:15:15.097Z,100.00
2022-08-26T00:16:17.396Z,100.00
2022-08-26T00:17:20.470Z,100.00
2022-08-26T00:18:22.860Z,100.00
2022-08-26T00:19:25.357Z,100.00
2022-08-26T00:20:31.255Z,100.00
2022-08-26T00:21:33.670Z,100.00
2022-08-26T00:22:37.125Z,100.00
2022-08-26T00:23:39.338Z,100.00
2022-08-26T00:24:47.880Z,100.00
2022-08-26T00:25:50.443Z,100.00
2022-08-26T00:26:52.738Z,100.00
2022-08-26T00:27:54.973Z,100.00
2022-08-26T00:28:58.301Z,100.00
2022-08-26T00:30:01.964Z,100.00
2022-08-26T00:31:04.439Z,100.00
2022-08-26T00:32:09.217Z,100.00
2022-08-26T00:33:15.767Z,100.00
2022-08-26T00:34:20.760Z,100.00
2022-08-26T00:35:23.511Z,100.00
2022-08-26T00:36:25.977Z,100.00
2022-08-26T00:37:32.429Z,100.00
2022-08-26T00:38:37.875Z,100.00
2022-08-26T00:39:41.428Z,100.00
2022-08-26T00:40:48.154Z,100.00
2022-08-26T00:41:50.527Z,100.00
2022-08-26T00:42:54.034Z,100.00
2022-08-26T00:43:56.424Z,100.00
2022-08-26T00:44:59.645Z,100.00
2022-08-26T00:46:10.388Z,100.00
2022-08-26T00:47:35.479Z,100.00
2022-08-26T00:48:43.939Z,100.00
2022-08-26T00:49:47.856Z,100.00
2022-08-26T00:50:55.952Z,100.00
2022-08-26T00:52:02.893Z,100.00
2022-08-26T00:53:21.468Z,100.00
2022-08-26T00:54:33.100Z,100.00
2022-08-26T00:55:41.153Z,100.00
2022-08-26T00:57:08.528Z,100.00
2022-08-26T00:58:19.061Z,100.00
2022-08-26T00:59:22.499Z,100.00
2022-08-26T01:00:28.089Z,100.00
2022-08-26T01:01:31.166Z,100.00
2022-08-26T01:02:34.065Z,100.00
2022-08-26T01:03:37.414Z,100.00
2022-08-26T01:04:40.158Z,100.00
2022-08-26T01:05:45.157Z,100.00
2022-08-26T01:06:51.445Z,100.00
2022-08-26T01:07:53.778Z,100.00
2022-08-26T01:08:56.435Z,100.00
2022-08-26T01:10:02.179Z,100.00
2022-08-26T01:11:06.698Z,100.00
2022-08-26T01:12:09.490Z,100.00
2022-08-26T01:13:14.021Z,100.00
2022-08-26T01:14:19.212Z,100.00
2022-08-26T01:15:26.624Z,100.00
2022-08-26T01:16:33.223Z,100.00
2022-08-26T01:17:37.612Z,100.00
2022-08-26T01:18:42.058Z,100.00
2022-08-26T01:19:50.975Z,100.00
2022-08-26T01:21:13.004Z,100.00
2022-08-26T01:22:31.075Z,100.00
2022-08-26T01:23:41.417Z,100.00
2022-08-26T01:24:48.188Z,100.00
2022-08-26T01:25:56.538Z,100.00
2022-08-26T01:27:05.001Z,100.00
2022-08-26T01:28:13.615Z,100.00
2022-08-26T01:29:19.064Z,100.00
2022-08-26T01:30:22.710Z,100.00
2022-08-26T01:31:31.886Z,100.00
2022-08-26T01:32:36.158Z,100.00
2022-08-26T01:34:00.700Z,100.00
2022-08-26T01:35:03.173Z,100.00
2022-08-26T01:36:07.318Z,100.00
2022-08-26T01:37:18.540Z,100.00
2022-08-26T01:38:20.949Z,100.00
2022-08-26T01:39:25.957Z,100.00
2022-08-26T01:40:33.052Z,100.00
2022-08-26T01:41:37.179Z,100.00
2022-08-26T01:42:41.304Z,100.00
2022-08-26T01:43:48.450Z,100.00
2022-08-26T01:45:00.083Z,100.00
2022-08-26T01:46:03.202Z,100.00
2022-08-26T01:47:09.341Z,100.00
2022-08-26T01:48:15.982Z,100.00
2022-08-26T01:49:20.850Z,100.00
2022-08-26T01:50:30.243Z,100.00
2022-08-26T01:51:37.028Z,100.00
2022-08-26T01:52:42.936Z,100.00
2022-08-26T01:53:46.879Z,100.00
2022-08-26T01:54:50.649Z,100.00
2022-08-26T01:55:58.528Z,100.00
2022-08-26T01:57:01.682Z,100.00
2022-08-26T01:58:08.169Z,100.00
2022-08-26T01:59:13.364Z,100.00
2022-08-26T02:00:17.016Z,100.00
2022-08-26T02:01:21.389Z,100.00
2022-08-26T02:02:24.578Z,100.00
2022-08-26T02:03:28.834Z,100.00
2022-08-26T02:04:39.880Z,100.00
2022-08-26T02:05:48.779Z,100.00
2022-08-26T02:06:54.578Z,100.00
2022-08-26T02:07:57.726Z,100.00
2022-08-26T02:09:01.785Z,100.00
2022-08-26T02:10:06.585Z,100.00
2022-08-26T02:11:09.302Z,100.00
2022-08-26T02:12:14.125Z,100.00
2022-08-26T02:13:16.586Z,100.00
2022-08-26T02:14:33.293Z,100.00
2022-08-26T02:15:40.431Z,100.00
2022-08-26T02:16:45.616Z,100.00
2022-08-26T02:17:47.960Z,100.00
2022-08-26T02:18:55.831Z,100.00
2022-08-26T02:19:58.364Z,100.00
2022-08-26T02:21:00.980Z,100.00
2022-08-26T02:22:07.198Z,100.00
2022-08-26T02:23:10.329Z,100.00
2022-08-26T02:24:19.299Z,100.00
2022-08-26T02:25:54.351Z,100.00
2022-08-26T02:26:58.304Z,100.00
2022-08-26T02:28:00.812Z,100.00
2022-08-26T02:29:09.708Z,100.00
2022-08-26T02:30:17.169Z,100.00
2022-08-26T02:31:19.875Z,100.00
2022-08-26T02:32:22.121Z,100.00
2022-08-26T02:33:28.690Z,100.00
2022-08-26T02:34:33.140Z,100.00
2022-08-26T02:35:36.405Z,100.00
2022-08-26T02:36:39.435Z,100.00
2022-08-26T02:37:42.516Z,100.00
2022-08-26T02:38:46.138Z,100.00
2022-08-26T02:39:48.508Z,100.00
2022-08-26T02:40:50.856Z,100.00
2022-08-26T02:41:53.341Z,100.00
2022-08-26T02:42:55.885Z,100.00
2022-08-26T02:43:59.804Z,100.00
2022-08-26T02:45:02.140Z,100.00
2022-08-26T02:46:05.895Z,100.00
2022-08-26T02:47:08.395Z,100.00
2022-08-26T02:48:15.021Z,100.00
2022-08-26T02:49:17.338Z,100.00
2022-08-26T02:50:19.987Z,100.00
2022-08-26T02:51:22.216Z,100.00
2022-08-26T02:52:25.395Z,100.00
2022-08-26T02:53:31.887Z,100.00
2022-08-26T02:54:34.714Z,100.00
2022-08-26T02:55:37.049Z,100.00
2022-08-26T02:56:39.489Z,100.00
2022-08-26T02:57:41.707Z,100.00
2022-08-26T02:58:44.144Z,100.00
2022-08-26T02:59:46.350Z,100.00
2022-08-26T03:00:52.754Z,100.00
2022-08-26T03:01:56.368Z,100.00
2022-08-26T03:02:59.567Z,100.00
2022-08-26T03:04:05.050Z,100.00
2022-08-26T03:05:08.354Z,100.00
2022-08-26T03:06:10.572Z,100.00
2022-08-26T03:07:12.901Z,100.00
2022-08-26T03:08:15.469Z,100.00
2022-08-26T03:09:18.941Z,100.00
2022-08-26T03:10:21.368Z,100.00
2022-08-26T03:11:23.758Z,100.00
2022-08-26T03:12:27.206Z,100.00
2022-08-26T03:13:29.967Z,100.00
2022-08-26T03:14:32.217Z,100.00
2022-08-26T03:15:34.558Z,100.00
2022-08-26T03:16:37.983Z,100.00
2022-08-26T03:17:40.821Z,100.00
2022-08-26T03:18:43.108Z,100.00
2022-08-26T03:19:57.289Z,100.00
2022-08-26T03:21:10.680Z,100.00
2022-08-26T03:22:14.484Z,100.00
2022-08-26T03:23:16.917Z,100.00
2022-08-26T03:24:20.931Z,100.00
2022-08-26T03:25:23.887Z,100.00
2022-08-26T03:26:27.266Z,100.00
2022-08-26T03:27:29.848Z,100.00
2022-08-26T03:28:35.237Z,100.00
2022-08-26T03:29:57.685Z,100.00
2022-08-26T03:31:00.099Z,100.00
2022-08-26T03:32:03.973Z,100.00
2022-08-26T03:33:07.153Z,100.00
2022-08-26T03:34:09.593Z,100.00
2022-08-26T03:35:13.556Z,100.00
2022-08-26T03:36:16.250Z,100.00
2022-08-26T03:37:19.290Z,100.00
2022-08-26T03:38:25.094Z,100.00
2022-08-26T03:39:27.639Z,100.00
2022-08-26T03:40:35.465Z,100.00
2022-08-26T03:41:38.226Z,100.00
2022-08-26T03:42:41.335Z,100.00
2022-08-26T03:43:48.328Z,100.00
2022-08-26T03:44:51.424Z,100.00
2022-08-26T03:45:53.797Z,100.00
2022-08-26T03:46:57.089Z,100.00
2022-08-26T03:47:59.761Z,100.00
2022-08-26T03:49:03.100Z,100.00
2022-08-26T03:50:08.189Z,100.00
2022-08-26T03:51:14.677Z,100.00
2022-08-26T03:52:20.803Z,100.00
2022-08-26T03:53:23.782Z,100.00
2022-08-26T03:54:26.860Z,100.00
2022-08-26T03:55:31.977Z,100.00
2022-08-26T03:56:34.427Z,100.00
2022-08-26T03:57:37.638Z,100.00
2022-08-26T03:58:42.861Z,100.00
2022-08-26T03:59:45.326Z,100.00
2022-08-26T04:00:47.706Z,100.00
2022-08-26T04:01:53.765Z,100.00
2022-08-26T04:02:56.904Z,100.00
2022-08-26T04:04:00.866Z,100.00
2022-08-26T04:05:03.972Z,100.00
2022-08-26T04:06:06.462Z,100.00
2022-08-26T04:07:08.830Z,100.00
2022-08-26T04:08:11.465Z,100.00
2022-08-26T04:09:17.631Z,100.00
2022-08-26T04:10:29.185Z,100.00
2022-08-26T04:11:34.542Z,100.00
2022-08-26T04:12:38.317Z,100.00
2022-08-26T04:13:40.593Z,100.00
2022-08-26T04:14:43.172Z,100.00
2022-08-26T04:15:46.856Z,100.00
2022-08-26T04:16:50.451Z,100.00
2022-08-26T04:17:53.118Z,100.00
2022-08-26T04:18:57.080Z,100.00
2022-08-26T04:19:59.429Z,100.00
2022-08-26T04:21:01.950Z,100.00
2022-08-26T04:22:04.589Z,100.00
2022-08-26T04:23:06.923Z,100.00
2022-08-26T04:24:12.317Z,100.00
2022-08-26T04:25:14.856Z,100.00
2022-08-26T04:26:20.022Z,100.00
2022-08-26T04:27:22.361Z,100.00
2022-08-26T04:28:24.758Z,100.00
2022-08-26T04:29:27.075Z,100.00
2022-08-26T04:30:29.342Z,100.00
2022-08-26T04:31:34.707Z,100.00
2022-08-26T04:32:37.445Z,100.00
2022-08-26T04:33:41.841Z,100.00
2022-08-26T04:34:44.873Z,100.00
2022-08-26T04:35:48.022Z,100.00
2022-08-26T04:36:51.345Z,100.00
2022-08-26T04:37:54.065Z,100.00
2022-08-26T04:38:57.096Z,100.00
2022-08-26T04:39:59.795Z,100.00
2022-08-26T04:41:03.303Z,100.00
2022-08-26T04:42:07.977Z,100.00
2022-08-26T04:43:11.213Z,100.00
2022-08-26T04:44:14.515Z,100.00
2022-08-26T04:45:16.770Z,100.00
2022-08-26T04:46:25.583Z,100.00
2022-08-26T04:47:32.100Z,100.00
2022-08-26T04:48:35.243Z,100.00
2022-08-26T04:49:38.185Z,100.00
2022-08-26T04:50:40.433Z,100.00
2022-08-26T04:51:45.866Z,100.00
2022-08-26T04:52:48.187Z,100.00
2022-08-26T04:53:50.997Z,100.00
2022-08-26T04:54:53.229Z,100.00
2022-08-26T04:55:55.739Z,100.00
2022-08-26T04:56:58.113Z,100.00
2022-08-26T04:58:00.392Z,100.00
2022-08-26T04:59:04.777Z,100.00
2022-08-26T05:00:12.353Z,100.00
2022-08-26T05:01:14.660Z,100.00
2022-08-26T05:02:18.037Z,100.00
2022-08-26T05:03:20.897Z,100.00
2022-08-26T05:04:23.290Z,100.00
2022-08-26T05:05:26.141Z,100.00
2022-08-26T05:06:29.173Z,100.00
2022-08-26T05:07:39.782Z,100.00
2022-08-26T05:08:42.531Z,100.00
2022-08-26T05:09:46.779Z,100.00
2022-08-26T05:10:53.393Z,100.00
2022-08-26T05:11:59.280Z,100.00
2022-08-26T05:13:03.417Z,100.00
2022-08-26T05:14:13.212Z,100.00
2022-08-26T05:15:16.175Z,100.00
2022-08-26T05:16:19.549Z,100.00
2022-08-26T05:17:23.251Z,100.00
2022-08-26T05:18:27.433Z,100.00
2022-08-26T05:19:30.343Z,100.00
2022-08-26T05:20:38.704Z,100.00
2022-08-26T05:21:43.518Z,100.00
2022-08-26T05:22:46.302Z,100.00
2022-08-26T05:23:51.598Z,100.00
2022-08-26T05:24:54.420Z,100.00
2022-08-26T05:25:59.176Z,100.00
2022-08-26T05:27:03.106Z,100.00
2022-08-26T05:28:16.337Z,100.00
2022-08-26T05:29:19.078Z,100.00
2022-08-26T05:30:22.870Z,100.00
2022-08-26T05:31:31.038Z,100.00
2022-08-26T05:32:33.406Z,100.00
2022-08-26T05:33:35.646Z,100.00
2022-08-26T05:34:37.986Z,100.00
2022-08-26T05:35:41.498Z,100.00
2022-08-26T05:36:43.733Z,100.00
2022-08-26T05:37:45.979Z,100.00
2022-08-26T05:38:49.013Z,100.00
2022-08-26T05:39:51.528Z,100.00
2022-08-26T05:40:53.790Z,100.00
2022-08-26T05:41:56.286Z,100.00
2022-08-26T05:42:59.856Z,100.00
2022-08-26T05:44:02.800Z,100.00
2022-08-26T05:45:05.484Z,100.00
2022-08-26T05:46:09.079Z,100.00
2022-08-26T05:47:11.855Z,100.00
2022-08-26T05:48:17.278Z,100.00
2022-08-26T05:49:20.448Z,100.00
2022-08-26T05:50:25.597Z,100.00
2022-08-26T05:51:30.454Z,100.00
2022-08-26T05:52:34.143Z,100.00
2022-08-26T05:53:38.500Z,100.00
2022-08-26T05:54:41.030Z,100.00
2022-08-26T05:55:48.976Z,100.00
2022-08-26T05:56:52.352Z,100.00
2022-08-26T05:57:55.100Z,100.00
2022-08-26T05:58:59.723Z,100.00
2022-08-26T06:00:03.656Z,100.00
2022-08-26T06:01:19.482Z,100.00
2022-08-26T06:02:24.067Z,100.00
2022-08-26T06:03:26.683Z,100.00
2022-08-26T06:04:29.903Z,100.00
2022-08-26T06:05:35.377Z,100.00
2022-08-26T06:06:41.489Z,100.00
2022-08-26T06:08:04.129Z,100.00
2022-08-26T06:09:10.975Z,100.00
2022-08-26T06:10:31.454Z,100.00
2022-08-26T06:11:34.728Z,100.00
2022-08-26T06:12:37.504Z,100.00
2022-08-26T06:13:41.194Z,100.00
2022-08-26T06:14:44.723Z,100.00
2022-08-26T06:15:51.820Z,100.00
2022-08-26T06:16:54.960Z,100.00
2022-08-26T06:17:57.893Z,100.00
2022-08-26T06:19:02.729Z,95.63
2022-08-26T06:20:05.252Z,95.51
2022-08-26T06:21:13.523Z,83.83
2022-08-26T06:22:35.438Z,76.77
2022-08-26T06:23:57.593Z,79.08
2022-08-26T06:25:19.949Z,73.55
2022-08-26T06:26:22.294Z,73.82
2022-08-26T06:27:27.323Z,77.81
2022-08-26T06:28:33.182Z,79.70
2022-08-26T06:29:37.591Z,77.73
2022-08-26T06:30:40.841Z,75.31
2022-08-26T06:31:44.061Z,74.72
2022-08-26T06:32:46.732Z,73.82
2022-08-26T06:33:50.488Z,69.12
2022-08-26T06:34:52.827Z,70.37
2022-08-26T06:35:55.354Z,70.62
2022-08-26T06:37:01.889Z,70.19
2022-08-26T06:38:05.433Z,69.06
2022-08-26T06:39:10.290Z,74.80
2022-08-26T06:40:13.159Z,77.68
2022-08-26T06:41:18.011Z,76.50
2022-08-26T06:42:20.397Z,86.59
2022-08-26T06:43:26.022Z,98.06
2022-08-26T06:44:28.384Z,100.00
2022-08-26T06:45:30.767Z,100.00
2022-08-26T06:46:35.375Z,100.00
2022-08-26T06:47:38.047Z,100.00
2022-08-26T06:48:40.697Z,100.00
2022-08-26T06:49:44.185Z,100.00
2022-08-26T06:50:48.290Z,100.00
2022-08-26T06:51:52.621Z,100.00
2022-08-26T06:52:54.995Z,100.00
2022-08-26T06:54:00.392Z,100.00
2022-08-26T06:55:03.697Z,100.00
2022-08-26T06:56:08.404Z,100.00
2022-08-26T06:57:12.764Z,100.00
2022-08-26T06:58:16.928Z,100.00
2022-08-26T06:59:19.784Z,100.00
2022-08-26T07:00:22.694Z,100.00
2022-08-26T07:01:28.485Z,100.00
2022-08-26T07:02:31.329Z,100.00
2022-08-26T07:03:35.026Z,100.00
2022-08-26T07:04:42.216Z,100.00
2022-08-26T07:05:45.344Z,100.00
2022-08-26T07:06:50.004Z,100.00
2022-08-26T07:07:55.425Z,100.00
2022-08-26T07:09:04.728Z,100.00
2022-08-26T07:10:08.505Z,100.00
2022-08-26T07:11:11.519Z,100.00
2022-08-26T07:12:14.556Z,100.00
2022-08-26T07:13:16.737Z,100.00
2022-08-26T07:14:34.387Z,100.00
2022-08-26T07:15:40.713Z,100.00
2022-08-26T07:16:43.043Z,100.00
2022-08-26T07:17:45.460Z,100.00
2022-08-26T07:18:48.498Z,100.00
2022-08-26T07:19:53.546Z,100.00
2022-08-26T07:20:55.816Z,100.00
2022-08-26T07:22:05.118Z,100.00
2022-08-26T07:23:09.992Z,100.00
2022-08-26T07:24:14.221Z,100.00
2022-08-26T07:25:17.370Z,100.00
2022-08-26T07:26:26.523Z,100.00
2022-08-26T07:27:30.890Z,100.00
2022-08-26T07:28:33.175Z,100.00
2022-08-26T07:29:36.469Z,100.00
2022-08-26T07:30:41.036Z,100.00
2022-08-26T07:31:45.115Z,100.00
2022-08-26T07:32:47.896Z,100.00
2022-08-26T07:33:51.034Z,100.00
2022-08-26T07:34:53.399Z,100.00
2022-08-26T07:35:56.040Z,100.00
2022-08-26T07:36:58.935Z,100.00
2022-08-26T07:38:01.710Z,100.00
2022-08-26T07:39:04.798Z,100.00
2022-08-26T07:40:07.773Z,100.00
2022-08-26T07:41:13.492Z,100.00
2022-08-26T07:42:18.599Z,100.00
2022-08-26T07:43:21.896Z,100.00
2022-08-26T07:44:27.297Z,100.00
2022-08-26T07:45:29.712Z,100.00
2022-08-26T07:46:32.157Z,100.00
2022-08-26T07:47:34.952Z,100.00
2022-08-26T07:48:37.790Z,100.00
2022-08-26T07:49:40.195Z,100.00
2022-08-26T07:50:50.505Z,100.00
2022-08-26T07:51:54.885Z,100.00
2022-08-26T07:52:57.216Z,100.00
2022-08-26T07:53:59.833Z,98.49
2022-08-26T07:55:02.668Z,97.73
2022-08-26T07:56:05.060Z,96.96
2022-08-26T07:57:08.352Z,95.83
2022-08-26T07:58:12.598Z,95.66
2022-08-26T07:59:16.964Z,96.52
2022-08-26T08:00:19.831Z,96.55
2022-08-26T08:01:24.764Z,97.22
2022-08-26T08:02:28.975Z,94.92
2022-08-26T08:03:31.675Z,94.02
2022-08-26T08:04:34.808Z,96.92
2022-08-26T08:05:38.300Z,97.80
2022-08-26T08:06:44.670Z,95.27
2022-08-26T08:07:47.297Z,92.20
2022-08-26T08:08:51.655Z,96.15
2022-08-26T08:09:54.040Z,93.41
2022-08-26T08:10:56.558Z,97.04
2022-08-26T08:11:59.475Z,94.81
2022-08-26T08:13:07.049Z,99.43
2022-08-26T08:14:13.109Z,94.58
2022-08-26T08:15:16.244Z,90.34
2022-08-26T08:16:18.844Z,87.86
2022-08-26T08:17:21.287Z,88.27
2022-08-26T08:18:23.941Z,86.86
2022-08-26T08:19:29.915Z,86.79
2022-08-26T08:20:42.282Z,84.57
2022-08-26T08:21:47.429Z,83.11
2022-08-26T08:22:50.799Z,82.38
2022-08-26T08:23:55.544Z,82.38
2022-08-26T08:24:58.024Z,83.67
2022-08-26T08:26:10.553Z,83.24
2022-08-26T08:27:12.884Z,84.48
2022-08-26T08:28:16.036Z,86.74
2022-08-26T08:29:18.406Z,85.02
2022-08-26T08:30:22.993Z,82.91
2022-08-26T08:31:55.839Z,80.15
2022-08-26T08:32:53.145Z,79.79
2022-08-26T08:33:55.525Z,80.14
2022-08-26T08:34:59.320Z,80.43
2022-08-26T08:36:02.039Z,80.31
2022-08-26T08:37:08.633Z,79.23
2022-08-26T08:38:12.822Z,78.22
2022-08-26T08:39:15.103Z,79.02
2022-08-26T08:40:18.285Z,81.93
2022-08-26T08:41:41.015Z,80.89
2022-08-26T08:42:43.255Z,80.96
2022-08-26T08:43:47.350Z,81.89
2022-08-26T08:44:52.802Z,82.26
2022-08-26T08:46:00.414Z,82.78
2022-08-26T08:47:12.993Z,83.59
2022-08-26T08:48:29.599Z,82.96
2022-08-26T08:49:33.865Z,82.00
2022-08-26T08:50:44.121Z,83.38
2022-08-26T08:51:59.224Z,86.49
2022-08-26T08:53:18.902Z,84.53
2022-08-26T08:54:21.923Z,83.27
2022-08-26T08:55:36.170Z,81.46
2022-08-26T08:56:59.794Z,80.58
2022-08-26T08:58:11.068Z,80.25
2022-08-26T08:59:18.615Z,80.12
2022-08-26T09:00:30.022Z,80.32
2022-08-26T09:01:45.005Z,79.64
2022-08-26T09:03:06.576Z,79.80
2022-08-26T09:04:46.165Z,79.00
2022-08-26T09:05:51.549Z,80.22
2022-08-26T09:08:06.790Z,81.29
2022-08-26T09:09:27.946Z,80.07
2022-08-26T09:10:43.393Z,80.04
2022-08-26T09:11:46.657Z,85.36
2022-08-26T09:12:51.209Z,84.18
2022-08-26T09:13:55.688Z,84.91
2022-08-26T09:15:20.717Z,82.56
2022-08-26T09:16:57.694Z,82.35
2022-08-26T09:18:09.034Z,83.46
2022-08-26T09:19:38.693Z,79.55
2022-08-26T09:20:59.025Z,77.72
2022-08-26T09:22:05.781Z,76.49
2022-08-26T09:23:11.446Z,76.39
2022-08-26T09:24:14.191Z,76.33
2022-08-26T09:25:16.803Z,75.11
2022-08-26T09:26:29.312Z,75.13
2022-08-26T09:27:38.887Z,78.29
2022-08-26T09:28:44.991Z,76.37
2022-08-26T09:29:50.460Z,74.35
2022-08-26T09:31:07.966Z,73.76
2022-08-26T09:32:22.120Z,70.55
2022-08-26T09:33:31.720Z,74.04
2022-08-26T09:34:34.007Z,75.57
2022-08-26T09:35:39.727Z,73.98
2022-08-26T09:36:51.475Z,74.38
2022-08-26T09:37:53.991Z,73.91
2022-08-26T09:38:57.003Z,71.73
2022-08-26T09:40:48.670Z,67.64
2022-08-26T09:42:12.887Z,66.99
2022-08-26T09:43:22.756Z,74.46
2022-08-26T09:44:25.625Z,74.05
2022-08-26T09:45:28.809Z,73.17
2022-08-26T09:46:32.998Z,72.43
2022-08-26T09:47:40.543Z,67.66
2022-08-26T09:48:43.291Z,66.61
2022-08-26T09:49:57.780Z,65.75
2022-08-26T09:51:24.031Z,64.76
2022-08-26T09:52:27.485Z,62.62
2022-08-26T09:53:33.728Z,64.16
2022-08-26T09:54:37.733Z,65.04
2022-08-26T09:55:44.172Z,62.54
2022-08-26T09:56:47.108Z,65.24
2022-08-26T09:57:52.395Z,64.04
2022-08-26T09:58:56.725Z,64.73
2022-08-26T10:00:01.208Z,65.22
2022-08-26T10:01:23.187Z,66.96
2022-08-26T10:02:34.322Z,64.50
2022-08-26T10:03:39.224Z,64.05
2022-08-26T10:04:50.836Z,60.41
2022-08-26T10:05:57.593Z,58.73
2022-08-26T10:07:09.893Z,55.66
2022-08-26T10:08:23.689Z,55.37
2022-08-26T10:09:28.097Z,56.83
2022-08-26T10:10:39.336Z,56.02
2022-08-26T10:11:51.323Z,53.05
2022-08-26T10:13:10.129Z,58.19
2022-08-26T10:14:21.694Z,61.48
2022-08-26T10:15:27.419Z,59.04
2022-08-26T10:16:36.892Z,56.48
2022-08-26T10:17:47.373Z,55.78
2022-08-26T10:18:59.900Z,54.59
2022-08-26T10:20:13.644Z,53.38
2022-08-26T10:21:32.753Z,56.38
2022-08-26T10:22:43.407Z,54.73
2022-08-26T10:23:51.541Z,57.36
2022-08-26T10:24:57.516Z,58.92
2022-08-26T10:26:15.501Z,58.49
2022-08-26T10:27:34.427Z,59.63
2022-08-26T10:28:53.769Z,57.56
2022-08-26T10:30:05.297Z,54.87
2022-08-26T10:31:28.054Z,60.50
2022-08-26T10:32:35.286Z,53.57
2022-08-26T10:33:43.182Z,53.55
2022-08-26T10:34:45.697Z,51.94
2022-08-26T10:35:55.339Z,54.42
2022-08-26T10:37:16.244Z,54.23
2022-08-26T10:38:23.832Z,58.47
2022-08-26T10:39:39.357Z,57.37
2022-08-26T10:40:46.369Z,56.75
2022-08-26T10:41:56.548Z,55.79
2022-08-26T10:43:11.012Z,54.11
2022-08-26T10:44:18.047Z,55.65
2022-08-26T10:45:25.366Z,58.37
2022-08-26T10:46:36.431Z,56.55
2022-08-26T10:47:54.663Z,61.58
2022-08-26T10:49:08.487Z,61.24
2022-08-26T10:50:12.846Z,59.21
2022-08-26T10:51:24.048Z,57.69
2022-08-26T10:52:29.412Z,57.66
2022-08-26T10:53:51.552Z,55.32
2022-08-26T10:55:11.410Z,53.39
2022-08-26T10:56:28.961Z,54.24
2022-08-26T10:57:46.398Z,53.39
2022-08-26T10:59:19.325Z,53.83
2022-08-26T11:01:00.470Z,53.26
2022-08-26T11:02:15.373Z,51.97
2022-08-26T11:03:41.505Z,49.50
2022-08-26T11:04:57.739Z,49.50
2022-08-26T11:06:20.438Z,50.09
2022-08-26T11:07:33.188Z,51.63
2022-08-26T11:08:45.007Z,49.98
2022-08-26T11:09:49.042Z,49.62
2022-08-26T11:10:51.969Z,50.09
2022-08-26T11:11:54.442Z,49.08
2022-08-26T11:12:58.560Z,49.53
2022-08-26T11:14:04.979Z,49.49
2022-08-26T11:15:12.502Z,51.79
2022-08-26T11:16:34.274Z,50.10
2022-08-26T11:17:45.788Z,48.26
2022-08-26T11:18:48.832Z,46.97
2022-08-26T11:20:03.308Z,47.50
2022-08-26T11:21:47.784Z,48.58
2022-08-26T11:22:53.771Z,50.00
2022-08-26T11:23:57.145Z,49.12
2022-08-26T11:25:02.553Z,47.84
2022-08-26T11:26:07.830Z,46.72
2022-08-26T11:27:32.418Z,46.56
2022-08-26T11:28:44.102Z,48.75
2022-08-26T11:29:57.224Z,52.95
2022-08-26T11:30:59.704Z,54.86
2022-08-26T11:32:02.615Z,55.90
2022-08-26T11:33:06.088Z,55.38
2022-08-26T11:34:13.666Z,56.38
2022-08-26T11:35:23.249Z,55.96
2022-08-26T11:36:35.050Z,52.73
2022-08-26T11:37:50.905Z,51.84
2022-08-26T11:38:54.804Z,51.70
2022-08-26T11:39:57.574Z,51.14
2022-08-26T11:41:11.144Z,50.24
2022-08-26T11:42:39.348Z,53.06
2022-08-26T11:43:42.546Z,56.22
2022-08-26T11:44:49.340Z,54.64
2022-08-26T11:46:00.133Z,54.13
2022-08-26T11:47:03.258Z,54.91
2022-08-26T11:48:30.711Z,54.18
2022-08-26T11:49:33.531Z,51.13
2022-08-26T11:50:35.867Z,49.23
2022-08-26T11:51:40.855Z,48.90
2022-08-26T11:53:10.733Z,46.99
2022-08-26T11:54:26.936Z,46.95
2022-08-26T11:55:43.318Z,47.07
2022-08-26T11:56:48.763Z,48.23
2022-08-26T11:57:54.610Z,50.58
2022-08-26T11:58:59.850Z,52.22
2022-08-26T12:00:03.913Z,50.64
2022-08-26T12:01:09.826Z,48.42
2022-08-26T12:02:17.872Z,47.57
2022-08-26T12:03:46.438Z,46.11
2022-08-26T12:04:51.879Z,46.92
2022-08-26T12:05:55.066Z,47.59
2022-08-26T12:07:00.693Z,46.80
2022-08-26T12:08:08.940Z,46.00
2022-08-26T12:09:20.493Z,45.11
2022-08-26T12:10:32.718Z,46.31
2022-08-26T12:11:37.545Z,45.92
2022-08-26T12:12:42.465Z,45.41
2022-08-26T12:13:56.163Z,45.43
2022-08-26T12:15:25.402Z,47.94
2022-08-26T12:16:31.669Z,48.48
2022-08-26T12:17:33.962Z,46.96
2022-08-26T12:18:38.945Z,46.49
2022-08-26T12:19:41.492Z,45.64
2022-08-26T12:20:47.923Z,45.65
2022-08-26T12:21:50.748Z,45.10
2022-08-26T12:22:53.942Z,43.67
2022-08-26T12:23:59.277Z,43.76
2022-08-26T12:25:07.380Z,46.82
2022-08-26T12:26:36.826Z,44.73
2022-08-26T12:27:42.693Z,45.01
2022-08-26T12:28:48.599Z,42.93
2022-08-26T12:30:12.357Z,44.34
2022-08-26T12:31:32.211Z,45.04
2022-08-26T12:32:36.309Z,46.63
2022-08-26T12:33:38.861Z,46.25
2022-08-26T12:34:43.191Z,47.08
2022-08-26T12:35:45.457Z,48.49
2022-08-26T12:36:56.762Z,48.70
2022-08-26T12:38:00.678Z,49.00
2022-08-26T12:39:11.861Z,47.07
2022-08-26T12:40:45.623Z,45.37
2022-08-26T12:41:53.638Z,45.92
2022-08-26T12:42:59.060Z,47.42
2022-08-26T12:44:01.409Z,47.99
2022-08-26T12:45:07.316Z,48.27
2022-08-26T12:46:16.435Z,48.10
2022-08-26T12:47:43.188Z,49.66
2022-08-26T12:48:49.475Z,51.03
2022-08-26T12:50:29.510Z,48.64
2022-08-26T12:51:34.746Z,46.52
2022-08-26T12:52:59.891Z,46.07
2022-08-26T12:54:06.817Z,45.72
2022-08-26T12:55:20.445Z,45.29
2022-08-26T12:56:38.732Z,45.49
2022-08-26T12:57:41.026Z,48.43
2022-08-26T12:58:44.161Z,49.98
2022-08-26T12:59:46.509Z,50.59
2022-08-26T13:00:53.033Z,50.90
2022-08-26T13:01:55.510Z,49.76
2022-08-26T13:02:59.563Z,50.06
2022-08-26T13:04:01.866Z,49.95
2022-08-26T13:05:05.208Z,49.31
2022-08-26T13:06:31.215Z,48.33
2022-08-26T13:07:33.695Z,48.88
2022-08-26T13:08:39.186Z,49.16
2022-08-26T13:09:41.711Z,49.85
2022-08-26T13:10:47.744Z,49.14
2022-08-26T13:11:52.931Z,50.94
2022-08-26T13:12:55.338Z,52.73
2022-08-26T13:14:01.801Z,54.76
2022-08-26T13:15:06.100Z,56.84
2022-08-26T13:16:08.431Z,56.81
2022-08-26T13:17:10.821Z,54.61
2022-08-26T13:18:13.192Z,56.90
2022-08-26T13:19:19.146Z,56.58
2022-08-26T13:20:21.646Z,56.99
2022-08-26T13:21:27.627Z,54.57
2022-08-26T13:22:30.039Z,52.87
2022-08-26T13:23:32.475Z,52.01
2022-08-26T13:24:39.788Z,51.53
2022-08-26T13:25:42.300Z,52.66
2022-08-26T13:26:46.925Z,54.66
2022-08-26T13:27:49.378Z,55.02
2022-08-26T13:29:01.870Z,56.00
2022-08-26T13:30:05.209Z,55.10
2022-08-26T13:31:08.922Z,53.63
2022-08-26T13:32:11.644Z,55.54
2022-08-26T13:33:16.664Z,54.93
2022-08-26T13:34:23.310Z,55.86
2022-08-26T13:35:26.116Z,56.57
2022-08-26T13:36:28.649Z,57.53
2022-08-26T13:37:34.178Z,58.27
2022-08-26T13:38:37.886Z,58.56
2022-08-26T13:39:42.177Z,59.00
2022-08-26T13:40:44.679Z,59.67
2022-08-26T13:41:47.118Z,59.39
2022-08-26T13:42:50.002Z,60.66
2022-08-26T13:43:52.761Z,60.75
2022-08-26T13:44:57.983Z,61.01
2022-08-26T13:46:01.471Z,61.01
2022-08-26T13:47:03.934Z,61.86
2022-08-26T13:48:07.804Z,62.07
2022-08-26T13:49:11.145Z,62.30
2022-08-26T13:50:13.447Z,64.12
2022-08-26T13:51:16.485Z,62.30
2022-08-26T13:52:18.825Z,63.25
2022-08-26T13:53:33.467Z,63.13
2022-08-26T13:54:36.141Z,62.50
2022-08-26T13:55:38.664Z,63.42
2022-08-26T13:56:40.922Z,64.11
2022-08-26T13:57:43.223Z,64.23
2022-08-26T13:58:46.750Z,63.22
2022-08-26T13:59:49.611Z,62.89
2022-08-26T14:00:51.957Z,62.59
2022-08-26T14:01:54.410Z,63.19
2022-08-26T14:02:57.430Z,64.85
2022-08-26T14:04:00.014Z,64.91
2022-08-26T14:05:02.424Z,65.04